sensor_id;sensor_type;location;lat;lon;timestamp;temperature;humidity
32524;DHT22;18965;52.242;20.886;2022-08-11T00:01:51;17.20;68.40
32524;DHT22;18965;52.242;20.886;2022-08-11T00:04:18;17.20;68.50
32524;DHT22;18965;52.242;20.886;2022-08-11T00:06:47;17.20;68.50
32524;DHT22;18965;52.242;20.886;2022-08-11T00:09:17;17.20;68.50
32524;DHT22;18965;52.242;20.886;2022-08-11T00:11:52;17.10;68.60
32524;DHT22;18965;52.242;20.886;2022-08-11T00:14:25;17.10;68.80
32524;DHT22;18965;52.242;20.886;2022-08-11T00:19:22;17.10;69.00
32524;DHT22;18965;52.242;20.886;2022-08-11T00:21:49;17.00;69.00
32524;DHT22;18965;52.242;20.886;2022-08-11T00:24:16;17.00;69.10
32524;DHT22;18965;52.242;20.886;2022-08-11T00:26:50;17.00;69.20
32524;DHT22;18965;52.242;20.886;2022-08-11T00:29:17;17.00;69.40
32524;DHT22;18965;52.242;20.886;2022-08-11T00:31:52;16.90;69.30
32524;DHT22;18965;52.242;20.886;2022-08-11T00:34:27;17.00;69.50
32524;DHT22;18965;52.242;20.886;2022-08-11T00:36:59;16.90;69.60
32524;DHT22;18965;52.242;20.886;2022-08-11T00:39:26;16.90;69.50
32524;DHT22;18965;52.242;20.886;2022-08-11T00:42:06;16.90;69.60
32524;DHT22;18965;52.242;20.886;2022-08-11T00:50:24;17.00;69.90
32524;DHT22;18965;52.242;20.886;2022-08-11T00:55:54;16.90;70.00
32524;DHT22;18965;52.242;20.886;2022-08-11T01:07:44;16.70;70.50
32524;DHT22;18965;52.242;20.886;2022-08-11T01:13:47;16.70;70.80
32524;DHT22;18965;52.242;20.886;2022-08-11T01:22:15;16.60;70.70
32524;DHT22;18965;52.242;20.886;2022-08-11T01:38:55;16.60;71.30
32524;DHT22;18965;52.242;20.886;2022-08-11T01:44:44;16.60;71.40
32524;DHT22;18965;52.242;20.886;2022-08-11T01:47:38;16.60;71.60
32524;DHT22;18965;52.242;20.886;2022-08-11T01:50:53;16.50;71.40
32524;DHT22;18965;52.242;20.886;2022-08-11T01:56:45;16.50;71.70
32524;DHT22;18965;52.242;20.886;2022-08-11T02:11:30;16.40;71.90
32524;DHT22;18965;52.242;20.886;2022-08-11T02:17:20;16.40;72.00
32524;DHT22;18965;52.242;20.886;2022-08-11T02:23:03;16.40;72.10
32524;DHT22;18965;52.242;20.886;2022-08-11T02:26:08;16.40;72.80
32524;DHT22;18965;52.242;20.886;2022-08-11T02:29:02;16.30;72.20
32524;DHT22;18965;52.242;20.886;2022-08-11T02:43:08;16.30;72.80
32524;DHT22;18965;52.242;20.886;2022-08-11T02:45:47;16.20;73.50
32524;DHT22;18965;52.242;20.886;2022-08-11T02:52:06;16.10;73.20
32524;DHT22;18965;52.242;20.886;2022-08-11T02:57:40;16.10;73.30
32524;DHT22;18965;52.242;20.886;2022-08-11T03:08:50;16.00;73.50
32524;DHT22;18965;52.242;20.886;2022-08-11T03:15:15;16.00;73.70
32524;DHT22;18965;52.242;20.886;2022-08-11T03:18:22;16.00;74.00
32524;DHT22;18965;52.242;20.886;2022-08-11T03:21:09;15.90;74.00
32524;DHT22;18965;52.242;20.886;2022-08-11T03:24:00;15.90;74.30
32524;DHT22;18965;52.242;20.886;2022-08-11T03:29:36;15.90;74.10
32524;DHT22;18965;52.242;20.886;2022-08-11T03:35:08;15.90;74.10
32524;DHT22;18965;52.242;20.886;2022-08-11T03:37:38;15.90;74.10
32524;DHT22;18965;52.242;20.886;2022-08-11T03:46:16;15.90;74.50
32524;DHT22;18965;52.242;20.886;2022-08-11T03:49:00;15.90;74.30
32524;DHT22;18965;52.242;20.886;2022-08-11T03:54:28;15.90;74.80
32524;DHT22;18965;52.242;20.886;2022-08-11T04:09:01;16.10;74.40
32524;DHT22;18965;52.242;20.886;2022-08-11T04:17:29;16.20;74.20
32524;DHT22;18965;52.242;20.886;2022-08-11T04:20:28;16.20;74.40
32524;DHT22;18965;52.242;20.886;2022-08-11T04:31:17;16.30;74.00
32524;DHT22;18965;52.242;20.886;2022-08-11T04:36:54;16.40;73.90
32524;DHT22;18965;52.242;20.886;2022-08-11T05:04:46;17.20;72.70
32524;DHT22;18965;52.242;20.886;2022-08-11T05:13:51;17.70;72.00
32524;DHT22;18965;52.242;20.886;2022-08-11T05:16:52;18.00;71.60
32524;DHT22;18965;52.242;20.886;2022-08-11T05:19:37;18.20;71.10
32524;DHT22;18965;52.242;20.886;2022-08-11T05:22:28;18.30;70.70
32524;DHT22;18965;52.242;20.886;2022-08-11T05:25:29;18.40;69.90
32524;DHT22;18965;52.242;20.886;2022-08-11T05:31:12;18.70;68.90
32524;DHT22;18965;52.242;20.886;2022-08-11T05:34:20;18.70;68.30
32524;DHT22;18965;52.242;20.886;2022-08-11T05:37:58;18.80;68.30
32524;DHT22;18965;52.242;20.886;2022-08-11T05:40:10;18.80;68.10
32524;DHT22;18965;52.242;20.886;2022-08-11T05:42:58;18.90;68.20
32524;DHT22;18965;52.242;20.886;2022-08-11T05:46:04;19.00;67.90
32524;DHT22;18965;52.242;20.886;2022-08-11T05:48:50;19.20;67.40
32524;DHT22;18965;52.242;20.886;2022-08-11T05:51:39;19.20;67.10
32524;DHT22;18965;52.242;20.886;2022-08-11T05:54:26;19.30;67.30
32524;DHT22;18965;52.242;20.886;2022-08-11T05:57:22;19.50;67.20
32524;DHT22;18965;52.242;20.886;2022-08-11T05:59:55;19.60;66.70
32524;DHT22;18965;52.242;20.886;2022-08-11T06:02:23;19.60;66.40
32524;DHT22;18965;52.242;20.886;2022-08-11T06:04:57;19.80;66.30
32524;DHT22;18965;52.242;20.886;2022-08-11T06:07:31;20.20;66.30
32524;DHT22;18965;52.242;20.886;2022-08-11T06:09:59;20.70;66.50
32524;DHT22;18965;52.242;20.886;2022-08-11T06:12:30;22.20;65.10
32524;DHT22;18965;52.242;20.886;2022-08-11T06:15:00;23.80;60.50
32524;DHT22;18965;52.242;20.886;2022-08-11T06:17:30;24.80;56.60
32524;DHT22;18965;52.242;20.886;2022-08-11T06:20:10;25.00;55.00
32524;DHT22;18965;52.242;20.886;2022-08-11T06:22:37;25.40;54.80
32524;DHT22;18965;52.242;20.886;2022-08-11T06:25:04;25.80;53.50
32524;DHT22;18965;52.242;20.886;2022-08-11T06:27:34;25.80;53.60
32524;DHT22;18965;52.242;20.886;2022-08-11T06:30:01;26.00;52.60
32524;DHT22;18965;52.242;20.886;2022-08-11T06:32:31;25.80;51.90
32524;DHT22;18965;52.242;20.886;2022-08-11T06:37:51;24.80;51.80
32524;DHT22;18965;52.242;20.886;2022-08-11T06:46:10;23.70;54.20
32524;DHT22;18965;52.242;20.886;2022-08-11T06:48:39;23.40;54.80
32524;DHT22;18965;52.242;20.886;2022-08-11T06:51:08;23.20;54.80
32524;DHT22;18965;52.242;20.886;2022-08-11T06:53:54;23.00;55.30
32524;DHT22;18965;52.242;20.886;2022-08-11T06:56:34;22.80;55.30
32524;DHT22;18965;52.242;20.886;2022-08-11T06:59:20;22.70;55.90
32524;DHT22;18965;52.242;20.886;2022-08-11T07:02:23;22.60;56.50
32524;DHT22;18965;52.242;20.886;2022-08-11T07:04:55;22.60;56.90
32524;DHT22;18965;52.242;20.886;2022-08-11T07:13:44;22.60;57.60
32524;DHT22;18965;52.242;20.886;2022-08-11T07:16:30;22.70;57.60
32524;DHT22;18965;52.242;20.886;2022-08-11T07:19:04;22.70;57.40
32524;DHT22;18965;52.242;20.886;2022-08-11T07:21:49;22.80;57.50
32524;DHT22;18965;52.242;20.886;2022-08-11T07:24:40;22.80;57.30
32524;DHT22;18965;52.242;20.886;2022-08-11T07:28:03;22.90;57.30
32524;DHT22;18965;52.242;20.886;2022-08-11T07:30:41;22.90;57.10
32524;DHT22;18965;52.242;20.886;2022-08-11T07:33:07;23.00;56.70
32524;DHT22;18965;52.242;20.886;2022-08-11T07:35:49;22.90;56.40
32524;DHT22;18965;52.242;20.886;2022-08-11T07:38:37;22.90;56.40
32524;DHT22;18965;52.242;20.886;2022-08-11T07:41:12;22.90;55.80
32524;DHT22;18965;52.242;20.886;2022-08-11T07:43:43;22.90;56.00
32524;DHT22;18965;52.242;20.886;2022-08-11T07:46:13;22.90;56.10
32524;DHT22;18965;52.242;20.886;2022-08-11T07:49:02;23.00;56.20
32524;DHT22;18965;52.242;20.886;2022-08-11T07:51:47;23.00;56.30
32524;DHT22;18965;52.242;20.886;2022-08-11T07:54:32;23.10;56.10
32524;DHT22;18965;52.242;20.886;2022-08-11T07:56:58;23.10;56.20
32524;DHT22;18965;52.242;20.886;2022-08-11T07:59:25;23.20;55.90
32524;DHT22;18965;52.242;20.886;2022-08-11T08:02:11;23.20;55.90
32524;DHT22;18965;52.242;20.886;2022-08-11T08:04:57;23.20;55.40
32524;DHT22;18965;52.242;20.886;2022-08-11T08:07:42;23.20;55.50
32524;DHT22;18965;52.242;20.886;2022-08-11T08:10:28;23.30;56.00
32524;DHT22;18965;52.242;20.886;2022-08-11T08:13:14;23.30;55.90
32524;DHT22;18965;52.242;20.886;2022-08-11T08:15:59;23.40;55.90
32524;DHT22;18965;52.242;20.886;2022-08-11T08:18:44;23.30;55.00
32524;DHT22;18965;52.242;20.886;2022-08-11T08:21:11;23.40;55.30
32524;DHT22;18965;52.242;20.886;2022-08-11T08:23:43;23.40;55.10
32524;DHT22;18965;52.242;20.886;2022-08-11T08:26:12;23.50;55.00
32524;DHT22;18965;52.242;20.886;2022-08-11T08:29:00;23.40;54.70
32524;DHT22;18965;52.242;20.886;2022-08-11T08:31:46;23.50;54.80
32524;DHT22;18965;52.242;20.886;2022-08-11T08:34:14;23.50;54.70
32524;DHT22;18965;52.242;20.886;2022-08-11T08:36:49;23.60;55.20
32524;DHT22;18965;52.242;20.886;2022-08-11T08:39:20;23.60;55.20
32524;DHT22;18965;52.242;20.886;2022-08-11T08:41:49;23.70;54.90
32524;DHT22;18965;52.242;20.886;2022-08-11T08:44:17;23.70;54.60
32524;DHT22;18965;52.242;20.886;2022-08-11T08:46:48;23.80;54.80
32524;DHT22;18965;52.242;20.886;2022-08-11T08:49:17;23.90;54.70
32524;DHT22;18965;52.242;20.886;2022-08-11T08:51:44;23.90;54.40
32524;DHT22;18965;52.242;20.886;2022-08-11T08:54:27;24.00;54.00
32524;DHT22;18965;52.242;20.886;2022-08-11T08:56:55;24.00;53.60
32524;DHT22;18965;52.242;20.886;2022-08-11T08:59:25;24.00;52.60
32524;DHT22;18965;52.242;20.886;2022-08-11T09:01:57;23.90;52.60
32524;DHT22;18965;52.242;20.886;2022-08-11T09:04:25;23.90;53.00
32524;DHT22;18965;52.242;20.886;2022-08-11T09:06:52;23.90;52.80
32524;DHT22;18965;52.242;20.886;2022-08-11T09:09:19;24.00;53.00
32524;DHT22;18965;52.242;20.886;2022-08-11T09:11:47;24.00;52.80
32524;DHT22;18965;52.242;20.886;2022-08-11T09:14:42;24.00;52.50
32524;DHT22;18965;52.242;20.886;2022-08-11T09:17:29;24.10;52.60
32524;DHT22;18965;52.242;20.886;2022-08-11T09:19:59;24.10;52.90
32524;DHT22;18965;52.242;20.886;2022-08-11T09:22:34;24.20;52.70
32524;DHT22;18965;52.242;20.886;2022-08-11T09:25:20;24.30;52.90
32524;DHT22;18965;52.242;20.886;2022-08-11T09:28:09;24.50;52.70
32524;DHT22;18965;52.242;20.886;2022-08-11T09:30:36;24.50;52.40
32524;DHT22;18965;52.242;20.886;2022-08-11T09:33:03;24.70;52.60
32524;DHT22;18965;52.242;20.886;2022-08-11T09:35:33;24.80;51.90
32524;DHT22;18965;52.242;20.886;2022-08-11T09:38:03;24.90;51.70
32524;DHT22;18965;52.242;20.886;2022-08-11T09:40:48;24.90;51.30
32524;DHT22;18965;52.242;20.886;2022-08-11T09:43:17;25.00;51.20
32524;DHT22;18965;52.242;20.886;2022-08-11T09:46:03;25.10;51.20
32524;DHT22;18965;52.242;20.886;2022-08-11T09:48:35;25.00;50.20
32524;DHT22;18965;52.242;20.886;2022-08-11T09:51:02;25.00;49.90
32524;DHT22;18965;52.242;20.886;2022-08-11T09:53:35;25.10;50.40
32524;DHT22;18965;52.242;20.886;2022-08-11T09:56:02;25.10;50.30
32524;DHT22;18965;52.242;20.886;2022-08-11T09:58:48;25.20;51.00
32524;DHT22;18965;52.242;20.886;2022-08-11T10:01:16;25.20;49.20
32524;DHT22;18965;52.242;20.886;2022-08-11T10:04:05;25.10;48.40
32524;DHT22;18965;52.242;20.886;2022-08-11T10:06:36;25.10;48.00
32524;DHT22;18965;52.242;20.886;2022-08-11T10:09:22;25.10;48.10
32524;DHT22;18965;52.242;20.886;2022-08-11T10:11:57;25.20;48.10
32524;DHT22;18965;52.242;20.886;2022-08-11T10:14:24;25.20;47.40
32524;DHT22;18965;52.242;20.886;2022-08-11T10:17:09;25.10;47.30
32524;DHT22;18965;52.242;20.886;2022-08-11T10:19:37;25.10;47.50
32524;DHT22;18965;52.242;20.886;2022-08-11T10:22:04;25.10;48.10
32524;DHT22;18965;52.242;20.886;2022-08-11T10:24:51;25.20;48.10
32524;DHT22;18965;52.242;20.886;2022-08-11T10:27:38;25.30;48.20
32524;DHT22;18965;52.242;20.886;2022-08-11T10:30:06;25.40;47.70
32524;DHT22;18965;52.242;20.886;2022-08-11T10:32:51;25.40;47.90
32524;DHT22;18965;52.242;20.886;2022-08-11T10:35:36;25.50;47.40
32524;DHT22;18965;52.242;20.886;2022-08-11T10:38:02;25.50;46.80
32524;DHT22;18965;52.242;20.886;2022-08-11T10:40:29;25.50;46.80
32524;DHT22;18965;52.242;20.886;2022-08-11T10:42:58;25.50;46.10
32524;DHT22;18965;52.242;20.886;2022-08-11T10:45:37;25.40;45.70
32524;DHT22;18965;52.242;20.886;2022-08-11T10:48:24;25.30;46.00
32524;DHT22;18965;52.242;20.886;2022-08-11T10:50:51;25.40;46.70
32524;DHT22;18965;52.242;20.886;2022-08-11T10:53:38;25.50;46.80
32524;DHT22;18965;52.242;20.886;2022-08-11T10:56:23;25.70;46.60
32524;DHT22;18965;52.242;20.886;2022-08-11T10:59:12;25.80;46.20
32524;DHT22;18965;52.242;20.886;2022-08-11T11:01:41;25.90;45.80
32524;DHT22;18965;52.242;20.886;2022-08-11T11:04:15;26.00;46.20
32524;DHT22;18965;52.242;20.886;2022-08-11T11:09:37;26.10;44.70
32524;DHT22;18965;52.242;20.886;2022-08-11T11:14:57;26.10;45.00
32524;DHT22;18965;52.242;20.886;2022-08-11T11:17:54;26.00;45.00
32524;DHT22;18965;52.242;20.886;2022-08-11T11:22:54;26.00;45.00
32524;DHT22;18965;52.242;20.886;2022-08-11T11:25:34;26.00;45.90
32524;DHT22;18965;52.242;20.886;2022-08-11T11:30:56;26.10;45.50
32524;DHT22;18965;52.242;20.886;2022-08-11T11:36:43;26.00;45.40
32524;DHT22;18965;52.242;20.886;2022-08-11T11:39:10;26.10;45.20
32524;DHT22;18965;52.242;20.886;2022-08-11T11:41:36;26.10;45.60
32524;DHT22;18965;52.242;20.886;2022-08-11T11:44:03;26.10;45.60
32524;DHT22;18965;52.242;20.886;2022-08-11T11:46:29;26.20;45.90
32524;DHT22;18965;52.242;20.886;2022-08-11T11:48:56;26.20;45.20
32524;DHT22;18965;52.242;20.886;2022-08-11T11:51:25;26.20;45.50
32524;DHT22;18965;52.242;20.886;2022-08-11T11:53:52;26.10;45.40
32524;DHT22;18965;52.242;20.886;2022-08-11T11:56:21;26.10;45.50
32524;DHT22;18965;52.242;20.886;2022-08-11T11:58:48;26.00;45.20
32524;DHT22;18965;52.242;20.886;2022-08-11T12:01:33;26.00;45.40
32524;DHT22;18965;52.242;20.886;2022-08-11T12:04:00;25.90;45.90
32524;DHT22;18965;52.242;20.886;2022-08-11T12:06:31;25.90;46.20
32524;DHT22;18965;52.242;20.886;2022-08-11T12:08:57;25.90;45.70
32524;DHT22;18965;52.242;20.886;2022-08-11T12:11:26;26.00;45.60
32524;DHT22;18965;52.242;20.886;2022-08-11T12:14:11;26.10;45.80
32524;DHT22;18965;52.242;20.886;2022-08-11T12:16:43;26.10;44.80
32524;DHT22;18965;52.242;20.886;2022-08-11T12:19:12;26.20;44.60
32524;DHT22;18965;52.242;20.886;2022-08-11T12:21:39;26.30;44.10
32524;DHT22;18965;52.242;20.886;2022-08-11T12:24:25;26.50;43.80
32524;DHT22;18965;52.242;20.886;2022-08-11T12:27:11;26.60;43.40
32524;DHT22;18965;52.242;20.886;2022-08-11T12:29:51;26.70;43.50
32524;DHT22;18965;52.242;20.886;2022-08-11T12:32:19;26.70;43.10
32524;DHT22;18965;52.242;20.886;2022-08-11T12:34:45;26.60;42.50
32524;DHT22;18965;52.242;20.886;2022-08-11T12:37:12;26.60;42.40
32524;DHT22;18965;52.242;20.886;2022-08-11T12:39:43;26.50;42.10
32524;DHT22;18965;52.242;20.886;2022-08-11T12:42:31;26.40;42.20
32524;DHT22;18965;52.242;20.886;2022-08-11T12:45:16;26.40;42.20
32524;DHT22;18965;52.242;20.886;2022-08-11T12:48:03;26.30;42.00
32524;DHT22;18965;52.242;20.886;2022-08-11T12:50:55;26.10;41.60
32524;DHT22;18965;52.242;20.886;2022-08-11T12:53:51;26.00;41.90
32524;DHT22;18965;52.242;20.886;2022-08-11T12:56:18;25.90;42.00
32524;DHT22;18965;52.242;20.886;2022-08-11T12:59:04;25.90;42.50
32524;DHT22;18965;52.242;20.886;2022-08-11T13:01:49;26.00;42.50
32524;DHT22;18965;52.242;20.886;2022-08-11T13:04:34;26.00;42.40
32524;DHT22;18965;52.242;20.886;2022-08-11T13:07:18;26.10;42.80
32524;DHT22;18965;52.242;20.886;2022-08-11T13:09:45;26.20;42.00
32524;DHT22;18965;52.242;20.886;2022-08-11T13:12:11;26.20;41.60
32524;DHT22;18965;52.242;20.886;2022-08-11T13:14:57;26.20;41.50
32524;DHT22;18965;52.242;20.886;2022-08-11T13:17:24;26.20;41.70
32524;DHT22;18965;52.242;20.886;2022-08-11T13:19:51;26.20;41.90
32524;DHT22;18965;52.242;20.886;2022-08-11T13:22:18;26.30;42.10
32524;DHT22;18965;52.242;20.886;2022-08-11T13:24:45;26.40;42.10
32524;DHT22;18965;52.242;20.886;2022-08-11T13:27:17;26.50;41.70
32524;DHT22;18965;52.242;20.886;2022-08-11T13:29:45;26.50;41.80
32524;DHT22;18965;52.242;20.886;2022-08-11T13:32:13;26.60;42.40
32524;DHT22;18965;52.242;20.886;2022-08-11T13:34:40;26.60;41.80
32524;DHT22;18965;52.242;20.886;2022-08-11T13:37:09;26.60;41.60
32524;DHT22;18965;52.242;20.886;2022-08-11T13:39:37;26.50;40.90
32524;DHT22;18965;52.242;20.886;2022-08-11T13:42:05;26.50;41.10
32524;DHT22;18965;52.242;20.886;2022-08-11T13:44:33;26.30;41.10
32524;DHT22;18965;52.242;20.886;2022-08-11T13:47:02;26.30;41.40
32524;DHT22;18965;52.242;20.886;2022-08-11T13:49:35;26.20;41.50
32524;DHT22;18965;52.242;20.886;2022-08-11T13:52:02;26.10;41.60
32524;DHT22;18965;52.242;20.886;2022-08-11T13:54:31;26.00;41.70
32524;DHT22;18965;52.242;20.886;2022-08-11T13:57:05;26.00;41.60
32524;DHT22;18965;52.242;20.886;2022-08-11T13:59:32;26.10;41.90
32524;DHT22;18965;52.242;20.886;2022-08-11T14:02:02;26.00;41.80
32524;DHT22;18965;52.242;20.886;2022-08-11T14:04:39;26.10;41.70
32524;DHT22;18965;52.242;20.886;2022-08-11T14:07:07;26.20;41.80
32524;DHT22;18965;52.242;20.886;2022-08-11T14:09:42;26.40;42.40
32524;DHT22;18965;52.242;20.886;2022-08-11T14:12:16;26.50;42.50
32524;DHT22;18965;52.242;20.886;2022-08-11T14:15:31;26.60;40.90
32524;DHT22;18965;52.242;20.886;2022-08-11T14:18:04;26.80;40.90
32524;DHT22;18965;52.242;20.886;2022-08-11T14:20:33;26.80;40.70
32524;DHT22;18965;52.242;20.886;2022-08-11T14:23:24;26.80;40.30
32524;DHT22;18965;52.242;20.886;2022-08-11T14:25:51;26.80;40.00
32524;DHT22;18965;52.242;20.886;2022-08-11T14:28:36;26.90;40.10
32524;DHT22;18965;52.242;20.886;2022-08-11T14:31:03;26.90;40.50
32524;DHT22;18965;52.242;20.886;2022-08-11T14:33:31;27.00;40.40
32524;DHT22;18965;52.242;20.886;2022-08-11T14:35:58;27.10;40.60
32524;DHT22;18965;52.242;20.886;2022-08-11T14:38:24;27.10;40.90
32524;DHT22;18965;52.242;20.886;2022-08-11T14:40:51;27.10;40.70
32524;DHT22;18965;52.242;20.886;2022-08-11T14:43:39;27.20;41.40
32524;DHT22;18965;52.242;20.886;2022-08-11T14:46:23;27.20;41.90
32524;DHT22;18965;52.242;20.886;2022-08-11T14:49:08;27.10;42.20
32524;DHT22;18965;52.242;20.886;2022-08-11T14:51:35;27.10;43.60
32524;DHT22;18965;52.242;20.886;2022-08-11T14:54:04;27.00;44.30
32524;DHT22;18965;52.242;20.886;2022-08-11T14:56:49;26.90;44.60
32524;DHT22;18965;52.242;20.886;2022-08-11T14:59:15;26.90;45.20
32524;DHT22;18965;52.242;20.886;2022-08-11T15:01:41;26.80;45.30
32524;DHT22;18965;52.242;20.886;2022-08-11T15:04:26;26.80;45.50
32524;DHT22;18965;52.242;20.886;2022-08-11T15:06:52;26.70;45.60
32524;DHT22;18965;52.242;20.886;2022-08-11T15:09:18;26.60;46.00
32524;DHT22;18965;52.242;20.886;2022-08-11T15:11:48;26.50;46.20
32524;DHT22;18965;52.242;20.886;2022-08-11T15:14:32;26.30;46.50
32524;DHT22;18965;52.242;20.886;2022-08-11T15:17:17;26.20;46.70
32524;DHT22;18965;52.242;20.886;2022-08-11T15:19:44;26.10;47.20
32524;DHT22;18965;52.242;20.886;2022-08-11T15:22:29;26.00;47.80
32524;DHT22;18965;52.242;20.886;2022-08-11T15:25:13;25.90;47.70
32524;DHT22;18965;52.242;20.886;2022-08-11T15:27:40;25.80;48.00
32524;DHT22;18965;52.242;20.886;2022-08-11T15:30:29;25.70;48.10
32524;DHT22;18965;52.242;20.886;2022-08-11T15:33:15;25.50;48.20
32524;DHT22;18965;52.242;20.886;2022-08-11T15:36:09;25.40;48.60
32524;DHT22;18965;52.242;20.886;2022-08-11T15:39:23;25.20;49.20
32524;DHT22;18965;52.242;20.886;2022-08-11T15:44:41;24.90;50.10
32524;DHT22;18965;52.242;20.886;2022-08-11T15:47:28;24.80;50.40
32524;DHT22;18965;52.242;20.886;2022-08-11T15:49:59;24.70;50.70
32524;DHT22;18965;52.242;20.886;2022-08-11T15:52:33;24.60;51.20
32524;DHT22;18965;52.242;20.886;2022-08-11T15:55:05;24.50;51.60
32524;DHT22;18965;52.242;20.886;2022-08-11T15:57:32;24.50;51.70
32524;DHT22;18965;52.242;20.886;2022-08-11T16:00:18;24.40;51.90
32524;DHT22;18965;52.242;20.886;2022-08-11T16:03:03;24.30;52.30
32524;DHT22;18965;52.242;20.886;2022-08-11T16:05:48;24.30;52.50
32524;DHT22;18965;52.242;20.886;2022-08-11T16:08:18;24.20;52.70
32524;DHT22;18965;52.242;20.886;2022-08-11T16:10:47;24.10;53.00
32524;DHT22;18965;52.242;20.886;2022-08-11T16:13:14;24.00;53.30
32524;DHT22;18965;52.242;20.886;2022-08-11T16:15:54;24.10;53.40
32524;DHT22;18965;52.242;20.886;2022-08-11T16:18:53;24.00;53.80
32524;DHT22;18965;52.242;20.886;2022-08-11T16:21:25;23.90;54.10
32524;DHT22;18965;52.242;20.886;2022-08-11T16:23:56;23.90;54.00
32524;DHT22;18965;52.242;20.886;2022-08-11T16:26:24;23.90;54.20
32524;DHT22;18965;52.242;20.886;2022-08-11T16:28:54;23.80;54.50
32524;DHT22;18965;52.242;20.886;2022-08-11T16:31:21;23.80;54.80
32524;DHT22;18965;52.242;20.886;2022-08-11T16:33:50;23.80;54.80
32524;DHT22;18965;52.242;20.886;2022-08-11T16:36:18;23.70;55.00
32524;DHT22;18965;52.242;20.886;2022-08-11T16:39:04;23.70;55.00
32524;DHT22;18965;52.242;20.886;2022-08-11T16:41:34;23.70;55.00
32524;DHT22;18965;52.242;20.886;2022-08-11T16:44:20;23.60;55.00
32524;DHT22;18965;52.242;20.886;2022-08-11T16:47:06;23.60;55.20
32524;DHT22;18965;52.242;20.886;2022-08-11T16:49:37;23.50;55.30
32524;DHT22;18965;52.242;20.886;2022-08-11T16:52:05;23.60;55.70
32524;DHT22;18965;52.242;20.886;2022-08-11T16:54:36;23.50;55.80
32524;DHT22;18965;52.242;20.886;2022-08-11T16:57:05;23.50;55.90
32524;DHT22;18965;52.242;20.886;2022-08-11T16:59:52;23.40;56.10
32524;DHT22;18965;52.242;20.886;2022-08-11T17:02:22;23.30;56.30
32524;DHT22;18965;52.242;20.886;2022-08-11T17:05:10;23.30;56.20
32524;DHT22;18965;52.242;20.886;2022-08-11T17:07:57;23.20;56.30
32524;DHT22;18965;52.242;20.886;2022-08-11T17:10:48;23.10;56.60
32524;DHT22;18965;52.242;20.886;2022-08-11T17:13:51;23.10;56.90
32524;DHT22;18965;52.242;20.886;2022-08-11T17:16:22;23.00;56.70
32524;DHT22;18965;52.242;20.886;2022-08-11T17:19:01;22.90;56.70
32524;DHT22;18965;52.242;20.886;2022-08-11T17:21:35;22.90;57.10
32524;DHT22;18965;52.242;20.886;2022-08-11T17:24:23;22.80;57.20
32524;DHT22;18965;52.242;20.886;2022-08-11T17:26:52;22.70;57.20
32524;DHT22;18965;52.242;20.886;2022-08-11T17:29:45;22.70;57.00
32524;DHT22;18965;52.242;20.886;2022-08-11T17:32:16;22.60;57.40
32524;DHT22;18965;52.242;20.886;2022-08-11T17:35:07;22.50;57.40
32524;DHT22;18965;52.242;20.886;2022-08-11T17:37:52;22.50;58.00
32524;DHT22;18965;52.242;20.886;2022-08-11T17:40:21;22.40;58.20
32524;DHT22;18965;52.242;20.886;2022-08-11T17:42:53;22.40;58.70
32524;DHT22;18965;52.242;20.886;2022-08-11T17:45:43;22.30;59.00
32524;DHT22;18965;52.242;20.886;2022-08-11T17:48:31;22.30;59.30
32524;DHT22;18965;52.242;20.886;2022-08-11T17:51:06;22.20;59.40
32524;DHT22;18965;52.242;20.886;2022-08-11T17:53:41;22.10;59.70
32524;DHT22;18965;52.242;20.886;2022-08-11T17:56:26;22.10;60.10
32524;DHT22;18965;52.242;20.886;2022-08-11T17:59:14;22.00;60.00
32524;DHT22;18965;52.242;20.886;2022-08-11T18:02:01;22.00;60.20
32524;DHT22;18965;52.242;20.886;2022-08-11T18:04:50;21.90;60.50
32524;DHT22;18965;52.242;20.886;2022-08-11T18:07:17;21.80;60.80
32524;DHT22;18965;52.242;20.886;2022-08-11T18:10:06;21.70;60.80
32524;DHT22;18965;52.242;20.886;2022-08-11T18:12:52;21.70;61.00
32524;DHT22;18965;52.242;20.886;2022-08-11T18:15:39;21.60;61.10
32524;DHT22;18965;52.242;20.886;2022-08-11T18:18:24;21.60;61.40
32524;DHT22;18965;52.242;20.886;2022-08-11T18:21:11;21.50;61.80
32524;DHT22;18965;52.242;20.886;2022-08-11T18:23:59;21.50;62.20
32524;DHT22;18965;52.242;20.886;2022-08-11T18:26:46;21.40;62.30
32524;DHT22;18965;52.242;20.886;2022-08-11T18:29:32;21.40;62.40
32524;DHT22;18965;52.242;20.886;2022-08-11T18:32:20;21.30;62.90
32524;DHT22;18965;52.242;20.886;2022-08-11T18:35:06;21.30;63.90
32524;DHT22;18965;52.242;20.886;2022-08-11T18:37:54;21.20;63.30
32524;DHT22;18965;52.242;20.886;2022-08-11T18:40:39;21.20;63.30
32524;DHT22;18965;52.242;20.886;2022-08-11T18:43:25;21.20;63.40
32524;DHT22;18965;52.242;20.886;2022-08-11T18:46:12;21.10;63.50
32524;DHT22;18965;52.242;20.886;2022-08-11T18:49:21;21.10;63.60
32524;DHT22;18965;52.242;20.886;2022-08-11T18:52:07;21.10;63.80
32524;DHT22;18965;52.242;20.886;2022-08-11T18:54:56;21.10;63.90
32524;DHT22;18965;52.242;20.886;2022-08-11T18:57:45;21.10;63.90
32524;DHT22;18965;52.242;20.886;2022-08-11T19:00:31;21.10;64.10
32524;DHT22;18965;52.242;20.886;2022-08-11T19:03:18;21.10;64.20
32524;DHT22;18965;52.242;20.886;2022-08-11T19:06:05;21.10;64.50
32524;DHT22;18965;52.242;20.886;2022-08-11T19:08:53;21.10;64.50
32524;DHT22;18965;52.242;20.886;2022-08-11T19:11:40;21.10;64.60
32524;DHT22;18965;52.242;20.886;2022-08-11T19:14:26;21.10;64.60
32524;DHT22;18965;52.242;20.886;2022-08-11T19:17:14;21.10;64.90
32524;DHT22;18965;52.242;20.886;2022-08-11T19:20:02;21.10;65.00
32524;DHT22;18965;52.242;20.886;2022-08-11T19:22:48;21.00;65.00
32524;DHT22;18965;52.242;20.886;2022-08-11T19:25:33;21.00;65.10
32524;DHT22;18965;52.242;20.886;2022-08-11T19:28:19;21.00;65.20
32524;DHT22;18965;52.242;20.886;2022-08-11T19:31:07;21.00;65.40
32524;DHT22;18965;52.242;20.886;2022-08-11T19:33:51;21.00;65.40
32524;DHT22;18965;52.242;20.886;2022-08-11T19:36:37;21.00;65.50
32524;DHT22;18965;52.242;20.886;2022-08-11T19:39:22;21.00;65.60
32524;DHT22;18965;52.242;20.886;2022-08-11T19:42:08;21.00;65.70
32524;DHT22;18965;52.242;20.886;2022-08-11T19:44:55;21.00;65.80
32524;DHT22;18965;52.242;20.886;2022-08-11T19:47:41;20.90;66.00
32524;DHT22;18965;52.242;20.886;2022-08-11T19:50:26;20.90;66.70
32524;DHT22;18965;52.242;20.886;2022-08-11T19:53:11;20.90;66.00